createdAt,value
2018-04-13T00:00:21.447Z,0
2018-04-13T00:01:22.117Z,0
2018-04-13T00:02:22.787Z,0
2018-04-13T00:03:23.456Z,0
2018-04-13T00:04:24.130Z,0
2018-04-13T00:05:24.794Z,0
2018-04-13T00:06:25.464Z,0
2018-04-13T00:07:26.137Z,0
2018-04-13T00:08:26.807Z,0
2018-04-13T00:09:27.476Z,0
2018-04-13T00:10:28.145Z,0
2018-04-13T00:11:28.817Z,0
2018-04-13T00:12:29.489Z,0
2018-04-13T00:13:30.157Z,0
2018-04-13T00:14:30.831Z,0
2018-04-13T00:15:31.499Z,0
2018-04-13T00:16:32.166Z,0
2018-04-13T00:17:32.833Z,0
2018-04-13T00:18:33.504Z,0
2018-04-13T00:19:34.176Z,0
2018-04-13T00:20:34.883Z,0
2018-04-13T00:21:35.523Z,0
2018-04-13T00:22:36.190Z,0
2018-04-13T00:23:36.858Z,0
2018-04-13T00:24:37.530Z,0
2018-04-13T00:25:38.199Z,0
2018-04-13T00:26:38.871Z,0
2018-04-13T00:27:39.539Z,0
2018-04-13T00:28:40.215Z,0
2018-04-13T00:29:40.886Z,0
2018-04-13T00:30:41.568Z,0
2018-04-13T00:31:42.243Z,0
2018-04-13T00:32:42.909Z,0
2018-04-13T00:33:43.580Z,0
2018-04-13T00:34:44.248Z,0
2018-04-13T00:35:44.919Z,0
2018-04-13T00:36:45.588Z,0
2018-04-13T00:37:46.258Z,0
2018-04-13T00:38:46.931Z,0
2018-04-13T00:39:47.602Z,0
2018-04-13T00:40:48.276Z,0
2018-04-13T00:41:48.947Z,0
2018-04-13T00:42:49.625Z,0
2018-04-13T00:43:50.299Z,0
2018-04-13T00:44:50.971Z,0
2018-04-13T00:45:51.643Z,0
2018-04-13T00:46:52.323Z,0
2018-04-13T00:47:52.993Z,0
2018-04-13T00:48:53.664Z,0
2018-04-13T00:49:54.332Z,0
2018-04-13T00:50:55.011Z,0
2018-04-13T00:51:55.681Z,0
2018-04-13T00:52:56.350Z,0
2018-04-13T00:53:57.023Z,0
2018-04-13T00:54:57.696Z,0
2018-04-13T00:55:58.366Z,0
2018-04-13T00:56:59.037Z,0
2018-04-13T00:57:59.716Z,0
2018-04-13T00:59:00.388Z,0
2018-04-13T01:00:01.062Z,0
2018-04-13T01:01:01.747Z,0
2018-04-13T01:02:02.414Z,0
2018-04-13T01:03:03.093Z,0
2018-04-13T01:04:03.768Z,0
2018-04-13T01:05:04.438Z,0
2018-04-13T01:06:05.110Z,0
2018-04-13T01:07:05.785Z,0
2018-04-13T01:08:06.456Z,0
2018-04-13T01:09:07.129Z,0
2018-04-13T01:10:07.801Z,0
2018-04-13T01:11:08.471Z,0
2018-04-13T01:12:09.144Z,0
2018-04-13T01:13:09.823Z,0
2018-04-13T01:14:10.500Z,0
2018-04-13T01:15:11.176Z,0
2018-04-13T01:16:11.846Z,0
2018-04-13T01:17:12.515Z,0
2018-04-13T01:18:13.184Z,0
2018-04-13T01:19:13.853Z,0
2018-04-13T01:20:14.523Z,0
2018-04-13T01:21:15.194Z,0
2018-04-13T01:22:15.865Z,0
2018-04-13T01:23:16.536Z,0
2018-04-13T01:24:17.205Z,0
2018-04-13T01:25:17.879Z,0
2018-04-13T01:26:18.552Z,0
2018-04-13T01:27:19.221Z,0
2018-04-13T01:28:19.897Z,0
2018-04-13T01:29:20.568Z,0
2018-04-13T01:30:21.238Z,0
2018-04-13T01:31:21.909Z,0
2018-04-13T01:32:22.591Z,0
2018-04-13T01:33:23.263Z,0
2018-04-13T01:34:23.941Z,0
2018-04-13T01:35:24.611Z,0
2018-04-13T01:36:25.290Z,0
2018-04-13T01:37:25.982Z,0
2018-04-13T01:38:26.634Z,0
2018-04-13T01:39:27.305Z,0
2018-04-13T01:40:27.977Z,0
2018-04-13T01:41:28.653Z,0
2018-04-13T01:42:29.341Z,0
2018-04-13T01:43:30.007Z,0
2018-04-13T01:44:30.678Z,0
2018-04-13T01:45:31.347Z,0
2018-04-13T01:46:32.022Z,0
2018-04-13T01:47:32.690Z,0
2018-04-13T01:48:33.356Z,0
2018-04-13T01:49:34.029Z,0
2018-04-13T01:50:34.705Z,0
2018-04-13T01:51:35.375Z,0
2018-04-13T01:52:36.044Z,0
2018-04-13T01:53:36.713Z,0
2018-04-13T01:54:37.383Z,0
2018-04-13T01:55:38.050Z,0
2018-04-13T01:56:38.721Z,0
2018-04-13T01:57:39.389Z,0
2018-04-13T01:58:40.065Z,0
2018-04-13T01:59:40.737Z,0
2018-04-13T02:00:41.419Z,0
2018-04-13T02:01:42.082Z,0
2018-04-13T02:02:42.750Z,0
2018-04-13T02:03:43.421Z,0
2018-04-13T02:04:44.099Z,0
2018-04-13T02:05:44.766Z,0
2018-04-13T02:06:45.439Z,0
2018-04-13T02:07:46.113Z,0
2018-04-13T02:08:46.784Z,0
2018-04-13T02:09:47.455Z,0
2018-04-13T02:10:48.128Z,0
2018-04-13T02:11:48.799Z,0
2018-04-13T02:12:49.470Z,0
2018-04-13T02:13:50.142Z,0
2018-04-13T02:14:50.812Z,0
2018-04-13T02:15:51.480Z,0
2018-04-13T02:16:52.149Z,0
2018-04-13T02:17:52.817Z,0
2018-04-13T02:18:53.491Z,0
2018-04-13T02:19:54.162Z,0
2018-04-13T02:20:54.836Z,0
2018-04-13T02:21:55.505Z,0
2018-04-13T02:22:56.175Z,0
2018-04-13T02:23:56.846Z,0
2018-04-13T02:24:57.514Z,0
2018-04-13T02:25:58.183Z,0
2018-04-13T02:26:58.856Z,0
2018-04-13T02:27:59.615Z,0
2018-04-13T02:29:00.284Z,0
2018-04-13T02:30:00.967Z,0
2018-04-13T02:31:01.644Z,0
2018-04-13T02:32:02.309Z,0
2018-04-13T02:33:02.982Z,0
2018-04-13T02:34:03.654Z,0
2018-04-13T02:35:04.323Z,0
2018-04-13T02:36:04.998Z,0
2018-04-13T02:37:05.671Z,0
2018-04-13T02:38:06.339Z,0
2018-04-13T02:39:07.009Z,0
2018-04-13T02:40:07.681Z,0
2018-04-13T02:41:08.351Z,0
2018-04-13T02:42:09.025Z,0
2018-04-13T02:43:09.699Z,0
2018-04-13T02:44:10.372Z,0
2018-04-13T02:45:11.041Z,0
2018-04-13T02:46:11.708Z,0
2018-04-13T02:47:12.383Z,0
2018-04-13T02:48:13.051Z,0
2018-04-13T02:49:13.720Z,0
2018-04-13T02:50:14.390Z,0
2018-04-13T02:51:15.072Z,0
2018-04-13T02:52:15.737Z,0
2018-04-13T02:53:16.411Z,0
2018-04-13T02:54:17.088Z,0
2018-04-13T02:55:17.762Z,0
2018-04-13T02:56:18.429Z,0
2018-04-13T02:57:19.105Z,0
2018-04-13T02:58:19.773Z,0
2018-04-13T02:59:20.445Z,0
2018-04-13T03:00:21.111Z,0
2018-04-13T03:01:21.779Z,0
2018-04-13T03:02:22.451Z,0
2018-04-13T03:03:23.125Z,0
2018-04-13T03:04:23.797Z,0
2018-04-13T03:05:24.469Z,0
2018-04-13T03:06:25.144Z,0
2018-04-13T03:07:25.820Z,0
2018-04-13T03:08:26.492Z,0
2018-04-13T03:09:27.165Z,0
2018-04-13T03:10:27.838Z,0
2018-04-13T03:11:28.555Z,0
2018-04-13T03:12:29.181Z,0
2018-04-13T03:13:29.847Z,0
2018-04-13T03:14:30.518Z,0
2018-04-13T03:15:31.189Z,0
2018-04-13T03:16:31.859Z,0
2018-04-13T03:17:32.530Z,0
2018-04-13T03:18:33.214Z,0
2018-04-13T03:19:33.879Z,0
2018-04-13T03:20:34.552Z,0
2018-04-13T03:21:35.222Z,0
2018-04-13T03:22:35.937Z,0
2018-04-13T03:23:36.563Z,0
2018-04-13T03:24:37.240Z,0
2018-04-13T03:25:37.911Z,0
2018-04-13T03:26:38.579Z,0
2018-04-13T03:27:39.255Z,0
2018-04-13T03:28:39.924Z,0
2018-04-13T03:29:40.598Z,0
2018-04-13T03:30:41.266Z,0
2018-04-13T03:31:41.942Z,0
2018-04-13T03:32:42.609Z,0
2018-04-13T03:33:43.280Z,0
2018-04-13T03:34:43.950Z,0
2018-04-13T03:35:44.624Z,0
2018-04-13T03:36:45.295Z,0
2018-04-13T03:37:45.969Z,0
2018-04-13T03:38:46.643Z,0
2018-04-13T03:39:47.308Z,0
2018-04-13T03:40:47.979Z,0
2018-04-13T03:41:48.646Z,0
2018-04-13T03:42:49.318Z,0
2018-04-13T03:43:49.990Z,0
2018-04-13T03:44:50.661Z,0
2018-04-13T03:45:51.333Z,0
2018-04-13T03:46:52.011Z,0
2018-04-13T03:47:52.679Z,0
2018-04-13T03:48:53.346Z,0
2018-04-13T03:49:54.024Z,0
2018-04-13T03:50:54.696Z,0
2018-04-13T03:51:55.365Z,0
2018-04-13T03:52:56.046Z,0
2018-04-13T03:53:56.709Z,0
2018-04-13T03:54:57.384Z,0
2018-04-13T03:55:58.062Z,0
2018-04-13T03:56:58.731Z,0
2018-04-13T03:57:59.405Z,0
2018-04-13T03:59:00.080Z,0
2018-04-13T04:00:00.752Z,0
2018-04-13T04:01:01.422Z,0
2018-04-13T04:02:02.102Z,0
2018-04-13T04:03:02.774Z,0
2018-04-13T04:04:03.442Z,0
2018-04-13T04:05:04.109Z,0
2018-04-13T04:06:04.783Z,0
2018-04-13T04:07:05.450Z,0
2018-04-13T04:08:06.121Z,0
2018-04-13T04:09:06.791Z,0
2018-04-13T04:10:07.462Z,0
2018-04-13T04:11:08.136Z,0
2018-04-13T04:12:08.805Z,0
2018-04-13T04:13:09.475Z,4
2018-04-13T04:14:10.149Z,4
2018-04-13T04:15:10.817Z,0
2018-04-13T04:16:11.492Z,4
2018-04-13T04:17:12.162Z,4
2018-04-13T04:18:12.834Z,4
2018-04-13T04:19:13.506Z,4
2018-04-13T04:20:14.175Z,4
2018-04-13T04:21:14.855Z,8
2018-04-13T04:22:15.532Z,8
2018-04-13T04:23:16.205Z,8
2018-04-13T04:24:16.878Z,8
2018-04-13T04:25:17.556Z,16
2018-04-13T04:26:18.224Z,16
2018-04-13T04:27:18.897Z,16
2018-04-13T04:28:19.565Z,16
2018-04-13T04:29:20.237Z,20
2018-04-13T04:30:20.914Z,20
2018-04-13T04:31:21.584Z,24
2018-04-13T04:32:22.255Z,28
2018-04-13T04:33:22.926Z,32
2018-04-13T04:34:23.605Z,32
2018-04-13T04:35:24.278Z,32
2018-04-13T04:36:24.948Z,36
2018-04-13T04:37:25.622Z,40
2018-04-13T04:38:26.293Z,44
2018-04-13T04:39:26.966Z,48
2018-04-13T04:40:27.639Z,52
2018-04-13T04:41:28.311Z,60
2018-04-13T04:42:28.982Z,64
2018-04-13T04:43:29.653Z,72
2018-04-13T04:44:30.325Z,72
2018-04-13T04:45:30.998Z,80
2018-04-13T04:46:31.669Z,88
2018-04-13T04:47:32.341Z,96
2018-04-13T04:48:33.014Z,104
2018-04-13T04:49:33.691Z,112
2018-04-13T04:50:34.357Z,120
2018-04-13T04:51:35.042Z,128
2018-04-13T04:52:35.712Z,132
2018-04-13T04:53:36.386Z,140
2018-04-13T04:54:37.060Z,148
2018-04-13T04:55:37.735Z,156
2018-04-13T04:56:38.403Z,168
2018-04-13T04:57:39.077Z,184
2018-04-13T04:58:39.771Z,196
2018-04-13T04:59:40.449Z,204
2018-04-13T05:00:41.106Z,216
2018-04-13T05:01:41.781Z,228
2018-04-13T05:02:42.460Z,236
2018-04-13T05:03:43.130Z,252
2018-04-13T05:04:43.808Z,268
2018-04-13T05:05:44.482Z,284
2018-04-13T05:06:45.156Z,304
2018-04-13T05:07:45.829Z,316
2018-04-13T05:08:46.499Z,328
2018-04-13T05:09:47.179Z,340
2018-04-13T05:10:47.854Z,348
2018-04-13T05:11:48.529Z,356
2018-04-13T05:12:49.204Z,356
2018-04-13T05:13:49.877Z,360
2018-04-13T05:14:50.558Z,364
2018-04-13T05:15:51.228Z,376
2018-04-13T05:16:51.906Z,400
2018-04-13T05:17:52.582Z,424
2018-04-13T05:18:53.257Z,452
2018-04-13T05:19:53.929Z,480
2018-04-13T05:20:54.601Z,504
2018-04-13T05:21:55.276Z,516
2018-04-13T05:22:55.958Z,528
2018-04-13T05:23:56.632Z,540
2018-04-13T05:24:57.309Z,552
2018-04-13T05:25:57.984Z,560
2018-04-13T05:26:58.656Z,568
2018-04-13T05:27:59.326Z,576
2018-04-13T05:29:00.007Z,584
2018-04-13T05:30:00.684Z,596
2018-04-13T05:31:01.354Z,608
2018-04-13T05:32:02.027Z,612
2018-04-13T05:33:02.705Z,612
2018-04-13T05:34:03.378Z,608
2018-04-13T05:35:04.069Z,608
2018-04-13T05:36:04.729Z,608
2018-04-13T05:37:05.405Z,608
2018-04-13T05:38:06.076Z,612
2018-04-13T05:39:06.750Z,616
2018-04-13T05:40:07.428Z,620
2018-04-13T05:41:08.096Z,624
2018-04-13T05:42:08.773Z,628
2018-04-13T05:43:09.443Z,632
2018-04-13T05:44:10.117Z,628
2018-04-13T05:45:10.797Z,624
2018-04-13T05:46:11.472Z,620
2018-04-13T05:47:12.149Z,620
2018-04-13T05:48:12.817Z,620
2018-04-13T05:49:13.488Z,620
2018-04-13T05:50:14.166Z,616
2018-04-13T05:51:14.839Z,616
2018-04-13T05:52:15.514Z,612
2018-04-13T05:53:16.192Z,612
2018-04-13T05:54:16.872Z,604
2018-04-13T05:55:17.545Z,592
2018-04-13T05:56:18.216Z,572
2018-04-13T05:57:18.893Z,564
2018-04-13T05:58:19.564Z,564
2018-04-13T05:59:20.236Z,568
2018-04-13T06:00:20.909Z,580
2018-04-13T06:01:21.586Z,596
2018-04-13T06:02:22.258Z,620
2018-04-13T06:03:22.935Z,640
2018-04-13T06:04:23.611Z,648
2018-04-13T06:05:24.283Z,640
2018-04-13T06:06:24.957Z,628
2018-04-13T06:07:25.632Z,620
2018-04-13T06:08:26.309Z,628
2018-04-13T06:09:26.983Z,648
2018-04-13T06:10:27.655Z,668
2018-04-13T06:11:28.328Z,680
2018-04-13T06:12:29.000Z,676
2018-04-13T06:13:29.709Z,664
2018-04-13T06:14:30.351Z,644
2018-04-13T06:15:31.027Z,628
2018-04-13T06:16:31.706Z,620
2018-04-13T06:17:32.385Z,608
2018-04-13T06:18:33.054Z,592
2018-04-13T06:19:33.730Z,568
2018-04-13T06:20:34.405Z,552
2018-04-13T06:21:35.077Z,540
2018-04-13T06:22:35.756Z,532
2018-04-13T06:23:36.444Z,532
2018-04-13T06:24:37.119Z,540
2018-04-13T06:25:37.791Z,544
2018-04-13T06:26:38.464Z,564
2018-04-13T06:27:39.137Z,584
2018-04-13T06:28:39.812Z,604
2018-04-13T06:29:40.489Z,624
2018-04-13T06:30:41.165Z,648
2018-04-13T06:31:41.838Z,680
2018-04-13T06:32:42.514Z,712
2018-04-13T06:33:43.186Z,736
2018-04-13T06:34:43.863Z,756
2018-04-13T06:35:44.540Z,780
2018-04-13T06:36:45.218Z,804
2018-04-13T06:37:45.895Z,820
2018-04-13T06:38:46.567Z,844
2018-04-13T06:39:47.239Z,864
2018-04-13T06:40:47.914Z,896
2018-04-13T06:41:48.586Z,928
2018-04-13T06:42:49.259Z,968
2018-04-13T06:43:49.940Z,1008
2018-04-13T06:44:50.615Z,1044
2018-04-13T06:45:51.290Z,1084
2018-04-13T06:46:51.964Z,1132
2018-04-13T06:47:52.636Z,1180
2018-04-13T06:48:53.377Z,1228
2018-04-13T06:49:53.982Z,1288
2018-04-13T06:50:54.670Z,1348
2018-04-13T06:51:55.348Z,1408
2018-04-13T06:52:56.019Z,1476
2018-04-13T06:53:56.699Z,1556
2018-04-13T06:54:57.381Z,1652
2018-04-13T06:55:58.064Z,1776
2018-04-13T06:56:58.738Z,1916
2018-04-13T06:57:59.409Z,2052
2018-04-13T06:59:00.087Z,2164
2018-04-13T07:00:00.764Z,2256
2018-04-13T07:01:01.447Z,2312
2018-04-13T07:02:02.136Z,2352
2018-04-13T07:03:02.814Z,2396
2018-04-13T07:04:03.492Z,2432
2018-04-13T07:05:04.171Z,2460
2018-04-13T07:06:04.845Z,2492
2018-04-13T07:07:05.530Z,2520
2018-04-13T07:08:06.208Z,2544
2018-04-13T07:09:06.889Z,2588
2018-04-13T07:10:07.566Z,2632
2018-04-13T07:11:08.241Z,2684
2018-04-13T07:12:08.913Z,2740
2018-04-13T07:13:09.590Z,2804
2018-04-13T07:14:10.261Z,2852
2018-04-13T07:15:10.943Z,2900
2018-04-13T07:16:11.621Z,2940
2018-04-13T07:17:12.298Z,2968
2018-04-13T07:18:12.976Z,2996
2018-04-13T07:19:13.696Z,2996
2018-04-13T07:20:14.490Z,2984
2018-04-13T07:21:15.167Z,2932
2018-04-13T07:22:15.843Z,2916
2018-04-13T07:23:16.516Z,2964
2018-04-13T07:24:17.195Z,3060
2018-04-13T07:25:17.878Z,3196
2018-04-13T07:26:18.554Z,3356
2018-04-13T07:27:19.229Z,3544
2018-04-13T07:28:19.905Z,3808
2018-04-13T07:29:20.585Z,4140
2018-04-13T07:30:21.263Z,4468
2018-04-13T07:31:21.937Z,4692
2018-04-13T07:32:22.613Z,4824
2018-04-13T07:33:23.288Z,4836
2018-04-13T07:34:23.964Z,4764
2018-04-13T07:35:24.807Z,4656
2018-04-13T07:36:25.317Z,4536
2018-04-13T07:37:26.314Z,4452
2018-04-13T07:38:26.700Z,4452
2018-04-13T07:39:27.373Z,4484
2018-04-13T07:40:28.048Z,4700
2018-04-13T07:41:28.724Z,4624
2018-04-13T07:42:29.409Z,4628
2018-04-13T07:43:30.088Z,4552
2018-04-13T07:44:30.764Z,4520
2018-04-13T07:45:31.438Z,4480
2018-04-13T07:46:32.120Z,4492
2018-04-13T07:47:32.810Z,4420
2018-04-13T07:48:33.485Z,4400
2018-04-13T07:49:34.231Z,4432
2018-04-13T07:50:34.837Z,4520
2018-04-13T07:51:35.519Z,4588
2018-04-13T07:52:36.194Z,4612
2018-04-13T07:53:36.870Z,4604
2018-04-13T07:54:37.546Z,4620
2018-04-13T07:55:38.221Z,4648
2018-04-13T07:56:38.898Z,4716
2018-04-13T07:57:39.572Z,4852
2018-04-13T07:58:40.246Z,5036
2018-04-13T07:59:40.941Z,5268
2018-04-13T08:00:41.609Z,5424
2018-04-13T08:01:42.289Z,5892
2018-04-13T08:02:42.965Z,5976
2018-04-13T08:03:43.649Z,6044
2018-04-13T08:04:44.324Z,6016
2018-04-13T08:05:45.007Z,5896
2018-04-13T08:06:45.686Z,5652
2018-04-13T08:07:46.361Z,5376
2018-04-13T08:08:47.042Z,5128
2018-04-13T08:09:47.716Z,5036
2018-04-13T08:10:48.653Z,5024
2018-04-13T08:11:49.080Z,5060
2018-04-13T08:12:49.759Z,5156
2018-04-13T08:13:50.435Z,5348
2018-04-13T08:14:51.111Z,5556
2018-04-13T08:15:51.795Z,5748
2018-04-13T08:16:52.470Z,5972
2018-04-13T08:17:53.147Z,6140
2018-04-13T08:18:53.825Z,6264
2018-04-13T08:19:54.503Z,6340
2018-04-13T08:20:55.184Z,6312
2018-04-13T08:21:55.862Z,6172
2018-04-13T08:22:56.537Z,5976
2018-04-13T08:23:57.222Z,5748
2018-04-13T08:24:57.904Z,5548
2018-04-13T08:25:58.585Z,5428
2018-04-13T08:26:59.265Z,5340
2018-04-13T08:27:59.940Z,5244
2018-04-13T08:29:00.620Z,5172
2018-04-13T08:30:01.301Z,5104
2018-04-13T08:31:01.992Z,5064
2018-04-13T08:32:02.670Z,5076
2018-04-13T08:33:03.352Z,5132
2018-04-13T08:34:04.017Z,5212
2018-04-13T08:35:04.705Z,5360
2018-04-13T08:36:05.376Z,5532
2018-04-13T08:37:06.059Z,5704
2018-04-13T08:38:06.737Z,5912
2018-04-13T08:39:07.417Z,6052
2018-04-13T08:40:08.096Z,6152
2018-04-13T08:41:08.775Z,6116
2018-04-13T08:42:09.454Z,6020
2018-04-13T08:43:10.129Z,5880
2018-04-13T08:44:10.809Z,5812
2018-04-13T08:45:11.519Z,5904
2018-04-13T08:46:12.166Z,6000
2018-04-13T08:47:12.855Z,5968
2018-04-13T08:48:13.539Z,5856
2018-04-13T08:49:14.341Z,5772
2018-04-13T08:50:14.889Z,5668
2018-04-13T08:51:15.565Z,5432
2018-04-13T08:52:16.243Z,5096
2018-04-13T08:53:16.956Z,4848
2018-04-13T08:54:17.597Z,4768
2018-04-13T08:55:18.307Z,4860
2018-04-13T08:56:18.972Z,5004
2018-04-13T08:57:19.631Z,5056
2018-04-13T08:58:20.304Z,5064
2018-04-13T08:59:20.984Z,5148
2018-04-13T09:00:21.662Z,5168
2018-04-13T09:01:22.349Z,5164
2018-04-13T09:02:23.026Z,5176
2018-04-13T09:03:23.714Z,5256
2018-04-13T09:04:24.387Z,5520
2018-04-13T09:05:25.069Z,5836
2018-04-13T09:06:25.799Z,6020
2018-04-13T09:07:26.422Z,6112
2018-04-13T09:08:27.096Z,6264
2018-04-13T09:09:27.776Z,6732
2018-04-13T09:10:28.450Z,7172
2018-04-13T09:11:29.130Z,7244
2018-04-13T09:12:29.808Z,7268
2018-04-13T09:13:30.486Z,7344
2018-04-13T09:14:31.166Z,7344
2018-04-13T09:15:31.842Z,7356
2018-04-13T09:16:32.518Z,7580
2018-04-13T09:17:33.194Z,7580
2018-04-13T09:18:33.877Z,7568
2018-04-13T09:19:34.561Z,7476
2018-04-13T09:20:35.236Z,7596
2018-04-13T09:21:35.910Z,8428
2018-04-13T09:22:36.585Z,7844
2018-04-13T09:23:37.262Z,7928
2018-04-13T09:24:37.890Z,7596
2018-04-13T09:25:38.618Z,7540
2018-04-13T09:26:39.298Z,7684
2018-04-13T09:27:39.979Z,7952
2018-04-13T09:28:40.655Z,7796
2018-04-13T09:29:41.333Z,7760
2018-04-13T09:30:42.015Z,8192
2018-04-13T09:31:42.696Z,7812
2018-04-13T09:32:43.371Z,7344
2018-04-13T09:33:44.052Z,6852
2018-04-13T09:34:44.731Z,6628
2018-04-13T09:35:45.433Z,6596
2018-04-13T09:36:46.100Z,6552
2018-04-13T09:37:46.780Z,6420
2018-04-13T09:38:47.463Z,6312
2018-04-13T09:39:48.144Z,6308
2018-04-13T09:40:48.829Z,6304
2018-04-13T09:41:49.502Z,6256
2018-04-13T09:42:50.178Z,6244
2018-04-13T09:43:50.856Z,6232
2018-04-13T09:44:51.535Z,6284
2018-04-13T09:45:52.231Z,6312
2018-04-13T09:46:52.907Z,6336
2018-04-13T09:47:53.598Z,6360
2018-04-13T09:48:54.275Z,6372
2018-04-13T09:49:54.952Z,6372
2018-04-13T09:50:55.627Z,6416
2018-04-13T09:51:56.361Z,6520
2018-04-13T09:52:57.035Z,6632
2018-04-13T09:53:57.716Z,6744
2018-04-13T09:54:58.400Z,6760
2018-04-13T09:55:59.081Z,6708
2018-04-13T09:56:59.755Z,6716
2018-04-13T09:58:00.431Z,6772
2018-04-13T09:59:01.113Z,6900
2018-04-13T10:00:01.790Z,7084
2018-04-13T10:01:02.471Z,7200
2018-04-13T10:02:03.150Z,7192
2018-04-13T10:03:03.826Z,7140
2018-04-13T10:04:04.509Z,7100
2018-04-13T10:05:05.186Z,7096
2018-04-13T10:06:05.870Z,7088
2018-04-13T10:07:06.549Z,7032
2018-04-13T10:08:07.280Z,6928
2018-04-13T10:09:07.910Z,6872
2018-04-13T10:10:08.583Z,6784
2018-04-13T10:11:09.268Z,6768
2018-04-13T10:12:10.251Z,6876
2018-04-13T10:13:10.928Z,7040
2018-04-13T10:14:11.609Z,7180
2018-04-13T10:15:12.291Z,7348
2018-04-13T10:16:12.973Z,7604
2018-04-13T10:17:13.650Z,7912
2018-04-13T10:18:14.326Z,8184
2018-04-13T10:19:15.001Z,8352
2018-04-13T10:20:15.685Z,8520
2018-04-13T10:21:16.364Z,8652
2018-04-13T10:22:17.043Z,8752
2018-04-13T10:23:17.721Z,8784
2018-04-13T10:24:18.399Z,8960
2018-04-13T10:25:19.075Z,8556
2018-04-13T10:26:19.751Z,8480
2018-04-13T10:27:20.429Z,8936
2018-04-13T10:28:21.116Z,8884
2018-04-13T10:29:21.793Z,9216
2018-04-13T10:30:22.484Z,9196
2018-04-13T10:31:23.171Z,8888
2018-04-13T10:32:23.852Z,8668
2018-04-13T10:33:24.534Z,8624
2018-04-13T10:34:25.211Z,8496
2018-04-13T10:35:25.889Z,8432
2018-04-13T10:36:26.566Z,8252
2018-04-13T10:37:27.248Z,8136
2018-04-13T10:38:27.929Z,8108
2018-04-13T10:39:28.607Z,7728
2018-04-13T10:40:29.279Z,7604
2018-04-13T10:41:29.962Z,7820
2018-04-13T10:42:30.640Z,8144
2018-04-13T10:43:31.319Z,8152
2018-04-13T10:44:32.004Z,7884
2018-04-13T10:45:32.680Z,6644
2018-04-13T10:46:33.361Z,6680
2018-04-13T10:47:34.047Z,6428
2018-04-13T10:48:34.749Z,6772
2018-04-13T10:49:35.430Z,6740
2018-04-13T10:50:36.108Z,6356
2018-04-13T10:51:36.795Z,6492
2018-04-13T10:52:37.480Z,6676
2018-04-13T10:53:38.158Z,6996
2018-04-13T10:54:38.837Z,7160
2018-04-13T10:55:39.511Z,7396
2018-04-13T10:56:40.189Z,7980
2018-04-13T10:57:40.866Z,8076
2018-04-13T10:58:41.551Z,8248
2018-04-13T10:59:42.239Z,8800
2018-04-13T11:00:42.922Z,9464
2018-04-13T11:01:43.602Z,8972
2018-04-13T11:02:44.280Z,8440
2018-04-13T11:03:44.981Z,7824
2018-04-13T11:04:45.643Z,7824
2018-04-13T11:05:46.323Z,7260
2018-04-13T11:06:47.008Z,7688
2018-04-13T11:07:47.686Z,8008
2018-04-13T11:08:48.363Z,8072
2018-04-13T11:09:49.040Z,7980
2018-04-13T11:10:49.715Z,8520
2018-04-13T11:11:50.401Z,9068
2018-04-13T11:12:51.079Z,9960
2018-04-13T11:13:51.763Z,10744
2018-04-13T11:14:52.444Z,11672
2018-04-13T11:15:53.123Z,12584
2018-04-13T11:16:53.841Z,12924
2018-04-13T11:17:54.529Z,13124
2018-04-13T11:18:55.210Z,12240
2018-04-13T11:19:55.891Z,8988
2018-04-13T11:20:56.564Z,6176
2018-04-13T11:21:57.241Z,7460
2018-04-13T11:22:57.921Z,9268
2018-04-13T11:23:58.600Z,6780
2018-04-13T11:24:59.282Z,6272
2018-04-13T11:25:59.964Z,7312
2018-04-13T11:27:00.649Z,6400
2018-04-13T11:28:01.334Z,5512
2018-04-13T11:29:02.013Z,5120
2018-04-13T11:30:02.690Z,4980
2018-04-13T11:31:03.365Z,4756
2018-04-13T11:32:04.046Z,5076
2018-04-13T11:33:04.735Z,5192
2018-04-13T11:34:05.418Z,5572
2018-04-13T11:35:06.094Z,6296
2018-04-13T11:36:06.772Z,6560
2018-04-13T11:37:07.451Z,6840
2018-04-13T11:38:08.130Z,6084
2018-04-13T11:39:08.820Z,5808
2018-04-13T11:40:09.501Z,5660
2018-04-13T11:41:10.182Z,5772
2018-04-13T11:42:10.864Z,5380
2018-04-13T11:43:11.541Z,4880
2018-04-13T11:44:12.219Z,4628
2018-04-13T11:45:12.900Z,4532
2018-04-13T11:46:13.582Z,4556
2018-04-13T11:47:14.262Z,4836
2018-04-13T11:48:14.946Z,5252
2018-04-13T11:49:15.631Z,5580
2018-04-13T11:50:16.309Z,8712
2018-04-13T11:51:16.991Z,7292
2018-04-13T11:52:17.674Z,5916
2018-04-13T11:53:18.360Z,6292
2018-04-13T11:54:19.032Z,6868
2018-04-13T11:55:19.713Z,8752
2018-04-13T11:56:20.389Z,12168
2018-04-13T11:57:21.075Z,11008
2018-04-13T11:58:21.756Z,47168
2018-04-13T11:59:22.433Z,43424
2018-04-13T12:00:23.114Z,49024
2018-04-13T12:01:23.804Z,48448
2018-04-13T12:02:24.496Z,27392
2018-04-13T12:03:25.175Z,11064
2018-04-13T12:04:25.855Z,5372
2018-04-13T12:05:26.549Z,4480
2018-04-13T12:06:27.234Z,4312
2018-04-13T12:07:27.927Z,4484
2018-04-13T12:08:28.615Z,5052
2018-04-13T12:09:29.306Z,5752
2018-04-13T12:10:29.983Z,7228
2018-04-13T12:11:30.669Z,7884
2018-04-13T12:12:31.354Z,7388
2018-04-13T12:13:32.039Z,6572
2018-04-13T12:14:32.721Z,5688
2018-04-13T12:15:33.400Z,5048
2018-04-13T12:16:34.088Z,5344
2018-04-13T12:17:34.772Z,5884
2018-04-13T12:18:35.460Z,5912
2018-04-13T12:19:36.144Z,5796
2018-04-13T12:20:36.820Z,5684
2018-04-13T12:21:37.499Z,5560
2018-04-13T12:22:38.174Z,5456
2018-04-13T12:23:38.860Z,5256
2018-04-13T12:24:39.547Z,4776
2018-04-13T12:25:40.229Z,4248
2018-04-13T12:26:40.911Z,3776
2018-04-13T12:27:41.588Z,3232
2018-04-13T12:28:42.266Z,2476
2018-04-13T12:29:42.943Z,1784
2018-04-13T12:30:43.629Z,1076
2018-04-13T12:31:44.301Z,684
2018-04-13T12:32:44.981Z,532
2018-04-13T12:33:45.657Z,500
2018-04-13T12:34:46.348Z,548
2018-04-13T12:35:47.025Z,652
2018-04-13T12:36:47.708Z,784
2018-04-13T12:37:48.384Z,900
2018-04-13T12:38:49.067Z,988
2018-04-13T12:39:49.744Z,1072
2018-04-13T12:40:50.436Z,1120
2018-04-13T12:41:51.114Z,1148
2018-04-13T12:42:51.792Z,1140
2018-04-13T12:43:52.471Z,1112
2018-04-13T12:44:53.153Z,1104
2018-04-13T12:45:53.838Z,1168
2018-04-13T12:46:54.523Z,1292
2018-04-13T12:47:55.196Z,1400
2018-04-13T12:49:56.551Z,1368
2018-04-13T12:50:57.254Z,1280
2018-04-13T12:51:57.926Z,1168
2018-04-13T12:52:58.660Z,1052
2018-04-13T12:53:59.348Z,912
2018-04-13T12:55:00.157Z,912
2018-04-13T12:56:00.638Z,896
2018-04-13T12:57:01.361Z,880
2018-04-13T12:58:01.999Z,828
2018-04-13T12:59:02.672Z,772
2018-04-13T13:00:03.346Z,716
2018-04-13T13:01:04.039Z,688
2018-04-13T13:02:04.716Z,660
2018-04-13T13:03:05.399Z,656
2018-04-13T13:04:06.080Z,684
2018-04-13T13:05:06.753Z,704
2018-04-13T13:06:07.427Z,708
2018-04-13T13:07:08.122Z,740
2018-04-13T13:08:08.786Z,760
2018-04-13T13:09:09.462Z,796
2018-04-13T13:10:10.133Z,740
2018-04-13T13:11:10.811Z,684
2018-04-13T13:12:11.494Z,612
2018-04-13T13:13:12.175Z,624
2018-04-13T13:14:12.859Z,776
2018-04-13T13:15:13.535Z,928
2018-04-13T13:16:14.219Z,932
2018-04-13T13:17:14.897Z,844
2018-04-13T13:18:15.582Z,724
2018-04-13T13:19:16.259Z,628
2018-04-13T13:20:16.936Z,632
2018-04-13T13:21:17.614Z,672
2018-04-13T13:22:18.295Z,672
2018-04-13T13:23:18.972Z,684
2018-04-13T13:24:19.649Z,744
2018-04-13T13:25:20.324Z,840
2018-04-13T13:26:20.998Z,872
2018-04-13T13:27:21.672Z,856
2018-04-13T13:28:22.359Z,824
2018-04-13T13:29:23.028Z,680
2018-04-13T13:30:23.711Z,652
2018-04-13T13:31:24.386Z,720
2018-04-13T13:32:25.059Z,748
2018-04-13T13:33:25.738Z,788
2018-04-13T13:34:26.412Z,872
2018-04-13T13:35:27.100Z,936
2018-04-13T13:36:27.782Z,924
2018-04-13T13:37:28.458Z,896
2018-04-13T13:38:29.131Z,860
2018-04-13T13:39:29.808Z,836
2018-04-13T13:40:30.478Z,848
2018-04-13T13:41:31.161Z,908
2018-04-13T13:42:31.841Z,1048
2018-04-13T13:43:32.527Z,1116
2018-04-13T13:44:33.201Z,1236
2018-04-13T13:45:33.873Z,1356
2018-04-13T13:46:34.556Z,1376
2018-04-13T13:47:35.240Z,1464
2018-04-13T13:48:35.917Z,1560
2018-04-13T13:49:36.616Z,1552
2018-04-13T13:50:37.300Z,1512
2018-04-13T13:51:37.973Z,1432
2018-04-13T13:52:38.648Z,1368
2018-04-13T13:53:39.321Z,1392
2018-04-13T13:54:40.000Z,1432
2018-04-13T13:55:40.689Z,1472
2018-04-13T13:56:41.366Z,1572
2018-04-13T13:57:42.044Z,1680
2018-04-13T13:58:42.725Z,1712
2018-04-13T13:59:43.398Z,1704
2018-04-13T14:00:44.081Z,1716
2018-04-13T14:01:44.763Z,1748